sensor_id;sensor_type;location;lat;lon;timestamp;P1;durP1;ratioP1;P2;durP2;ratioP2
79005;SDS011;69202;45.498;-73.582;2023-07-08T00:00:48;3.38;;;3.08;;
79005;SDS011;69202;45.498;-73.582;2023-07-08T00:03:14;2.72;;;2.53;;
79005;SDS011;69202;45.498;-73.582;2023-07-08T00:05:41;3.28;;;2.97;;
79005;SDS011;69202;45.498;-73.582;2023-07-08T00:08:13;3.28;;;2.92;;
79005;SDS011;69202;45.498;-73.582;2023-07-08T00:10:40;3.13;;;2.92;;
79005;SDS011;69202;45.498;-73.582;2023-07-08T00:13:07;3.22;;;3.03;;
79005;SDS011;69202;45.498;-73.582;2023-07-08T00:15:35;3.17;;;2.90;;
79005;SDS011;69202;45.498;-73.582;2023-07-08T00:18:05;5.43;;;3.20;;
79005;SDS011;69202;45.498;-73.582;2023-07-08T00:20:46;2.85;;;2.60;;
79005;SDS011;69202;45.498;-73.582;2023-07-08T00:23:13;3.50;;;3.20;;
79005;SDS011;69202;45.498;-73.582;2023-07-08T00:25:40;3.45;;;3.15;;
79005;SDS011;69202;45.498;-73.582;2023-07-08T00:28:14;3.38;;;3.08;;
79005;SDS011;69202;45.498;-73.582;2023-07-08T00:30:41;2.83;;;2.63;;
79005;SDS011;69202;45.498;-73.582;2023-07-08T00:33:07;3.50;;;3.20;;
79005;SDS011;69202;45.498;-73.582;2023-07-08T00:35:38;3.00;;;2.80;;
79005;SDS011;69202;45.498;-73.582;2023-07-08T00:38:22;3.13;;;2.88;;
79005;SDS011;69202;45.498;-73.582;2023-07-08T00:43:38;3.60;;;3.30;;
79005;SDS011;69202;45.498;-73.582;2023-07-08T00:48:57;3.40;;;3.10;;
79005;SDS011;69202;45.498;-73.582;2023-07-08T00:51:31;3.03;;;2.83;;
79005;SDS011;69202;45.498;-73.582;2023-07-08T00:54:11;7.32;;;4.32;;
79005;SDS011;69202;45.498;-73.582;2023-07-08T00:56:57;6.78;;;6.03;;
79005;SDS011;69202;45.498;-73.582;2023-07-08T01:01:58;8.10;;;6.00;;
79005;SDS011;69202;45.498;-73.582;2023-07-08T01:04:49;9.02;;;6.53;;
79005;SDS011;69202;45.498;-73.582;2023-07-08T01:07:20;6.20;;;5.47;;
79005;SDS011;69202;45.498;-73.582;2023-07-08T01:09:48;8.40;;;6.88;;
79005;SDS011;69202;45.498;-73.582;2023-07-08T01:12:21;6.40;;;5.53;;
79005;SDS011;69202;45.498;-73.582;2023-07-08T01:14:52;4.40;;;4.00;;
79005;SDS011;69202;45.498;-73.582;2023-07-08T01:17:21;8.27;;;6.10;;
79005;SDS011;69202;45.498;-73.582;2023-07-08T01:19:50;12.77;;;8.38;;
79005;SDS011;69202;45.498;-73.582;2023-07-08T01:22:16;5.38;;;4.88;;
79005;SDS011;69202;45.498;-73.582;2023-07-08T01:24:42;9.77;;;7.97;;
79005;SDS011;69202;45.498;-73.582;2023-07-08T01:27:11;7.95;;;6.68;;
79005;SDS011;69202;45.498;-73.582;2023-07-08T01:29:40;9.95;;;8.25;;
79005;SDS011;69202;45.498;-73.582;2023-07-08T01:32:06;11.55;;;8.20;;
79005;SDS011;69202;45.498;-73.582;2023-07-08T01:34:39;8.43;;;7.25;;
79005;SDS011;69202;45.498;-73.582;2023-07-08T01:37:05;4.80;;;4.40;;
79005;SDS011;69202;45.498;-73.582;2023-07-08T01:39:32;3.80;;;3.50;;
79005;SDS011;69202;45.498;-73.582;2023-07-08T01:42:01;5.35;;;4.43;;
79005;SDS011;69202;45.498;-73.582;2023-07-08T01:44:29;4.85;;;3.80;;
79005;SDS011;69202;45.498;-73.582;2023-07-08T01:47:02;5.30;;;3.67;;
79005;SDS011;69202;45.498;-73.582;2023-07-08T01:49:39;3.53;;;3.22;;
79005;SDS011;69202;45.498;-73.582;2023-07-08T01:52:07;3.67;;;3.38;;
79005;SDS011;69202;45.498;-73.582;2023-07-08T01:54:35;3.38;;;3.08;;
79005;SDS011;69202;45.498;-73.582;2023-07-08T01:57:01;4.07;;;3.67;;
79005;SDS011;69202;45.498;-73.582;2023-07-08T01:59:27;3.55;;;3.25;;
79005;SDS011;69202;45.498;-73.582;2023-07-08T02:01:54;4.47;;;4.03;;
79005;SDS011;69202;45.498;-73.582;2023-07-08T02:04:23;4.28;;;3.85;;
79005;SDS011;69202;45.498;-73.582;2023-07-08T02:06:51;6.63;;;5.10;;
79005;SDS011;69202;45.498;-73.582;2023-07-08T02:09:20;5.43;;;4.88;;
79005;SDS011;69202;45.498;-73.582;2023-07-08T02:11:46;7.32;;;4.75;;
79005;SDS011;69202;45.498;-73.582;2023-07-08T02:14:12;4.43;;;4.03;;
79005;SDS011;69202;45.498;-73.582;2023-07-08T02:16:38;3.85;;;3.55;;
79005;SDS011;69202;45.498;-73.582;2023-07-08T02:19:04;4.10;;;3.65;;
79005;SDS011;69202;45.498;-73.582;2023-07-08T02:21:30;3.78;;;3.22;;
79005;SDS011;69202;45.498;-73.582;2023-07-08T02:23:56;8.00;;;6.20;;
79005;SDS011;69202;45.498;-73.582;2023-07-08T02:26:23;9.85;;;6.53;;
79005;SDS011;69202;45.498;-73.582;2023-07-08T02:28:49;5.57;;;4.40;;
79005;SDS011;69202;45.498;-73.582;2023-07-08T02:31:15;5.47;;;4.13;;
79005;SDS011;69202;45.498;-73.582;2023-07-08T02:33:41;7.28;;;5.22;;
79005;SDS011;69202;45.498;-73.582;2023-07-08T02:36:07;4.78;;;4.28;;
79005;SDS011;69202;45.498;-73.582;2023-07-08T02:38:32;8.73;;;6.22;;
79005;SDS011;69202;45.498;-73.582;2023-07-08T02:40:59;9.85;;;6.32;;
79005;SDS011;69202;45.498;-73.582;2023-07-08T02:43:25;4.85;;;3.85;;
79005;SDS011;69202;45.498;-73.582;2023-07-08T02:45:51;3.90;;;3.60;;
79005;SDS011;69202;45.498;-73.582;2023-07-08T02:48:18;3.65;;;3.10;;
79005;SDS011;69202;45.498;-73.582;2023-07-08T02:50:44;4.53;;;3.72;;
79005;SDS011;69202;45.498;-73.582;2023-07-08T02:53:11;7.85;;;5.88;;
79005;SDS011;69202;45.498;-73.582;2023-07-08T02:55:38;4.28;;;3.88;;
79005;SDS011;69202;45.498;-73.582;2023-07-08T02:58:07;8.75;;;6.80;;
79005;SDS011;69202;45.498;-73.582;2023-07-08T03:00:37;10.48;;;7.50;;
79005;SDS011;69202;45.498;-73.582;2023-07-08T03:03:03;8.85;;;6.30;;
79005;SDS011;69202;45.498;-73.582;2023-07-08T03:05:29;9.85;;;7.85;;
79005;SDS011;69202;45.498;-73.582;2023-07-08T03:07:56;12.70;;;7.28;;
79005;SDS011;69202;45.498;-73.582;2023-07-08T03:10:22;8.30;;;6.85;;
79005;SDS011;69202;45.498;-73.582;2023-07-08T03:12:47;6.93;;;6.22;;
79005;SDS011;69202;45.498;-73.582;2023-07-08T03:15:13;9.10;;;7.47;;
79005;SDS011;69202;45.498;-73.582;2023-07-08T03:17:39;8.38;;;7.15;;
79005;SDS011;69202;45.498;-73.582;2023-07-08T03:20:07;6.07;;;5.32;;
79005;SDS011;69202;45.498;-73.582;2023-07-08T03:22:35;11.05;;;5.90;;
79005;SDS011;69202;45.498;-73.582;2023-07-08T03:25:01;12.70;;;7.40;;
79005;SDS011;69202;45.498;-73.582;2023-07-08T03:27:27;10.00;;;7.15;;
79005;SDS011;69202;45.498;-73.582;2023-07-08T03:29:53;9.93;;;7.50;;
79005;SDS011;69202;45.498;-73.582;2023-07-08T03:32:19;8.57;;;7.78;;
79005;SDS011;69202;45.498;-73.582;2023-07-08T03:34:45;8.48;;;7.40;;
79005;SDS011;69202;45.498;-73.582;2023-07-08T03:37:11;8.13;;;7.22;;
79005;SDS011;69202;45.498;-73.582;2023-07-08T03:39:37;7.97;;;7.20;;
79005;SDS011;69202;45.498;-73.582;2023-07-08T03:42:03;5.32;;;4.82;;
79005;SDS011;69202;45.498;-73.582;2023-07-08T03:44:29;6.18;;;4.25;;
79005;SDS011;69202;45.498;-73.582;2023-07-08T03:46:56;7.53;;;6.82;;
79005;SDS011;69202;45.498;-73.582;2023-07-08T03:49:22;6.03;;;5.43;;
79005;SDS011;69202;45.498;-73.582;2023-07-08T03:51:49;5.53;;;5.03;;
79005;SDS011;69202;45.498;-73.582;2023-07-08T03:54:19;5.15;;;4.65;;
79005;SDS011;69202;45.498;-73.582;2023-07-08T03:56:46;6.68;;;5.65;;
79005;SDS011;69202;45.498;-73.582;2023-07-08T03:59:12;8.02;;;7.22;;
79005;SDS011;69202;45.498;-73.582;2023-07-08T04:01:38;5.55;;;4.95;;
79005;SDS011;69202;45.498;-73.582;2023-07-08T04:04:06;6.78;;;5.63;;
79005;SDS011;69202;45.498;-73.582;2023-07-08T04:06:34;6.40;;;5.18;;
79005;SDS011;69202;45.498;-73.582;2023-07-08T04:09:00;10.13;;;7.20;;
79005;SDS011;69202;45.498;-73.582;2023-07-08T04:11:26;12.07;;;8.15;;
79005;SDS011;69202;45.498;-73.582;2023-07-08T04:13:52;10.45;;;8.05;;
79005;SDS011;69202;45.498;-73.582;2023-07-08T04:16:25;11.82;;;8.52;;
79005;SDS011;69202;45.498;-73.582;2023-07-08T04:18:55;12.30;;;7.80;;
79005;SDS011;69202;45.498;-73.582;2023-07-08T04:21:22;10.05;;;8.40;;
79005;SDS011;69202;45.498;-73.582;2023-07-08T04:23:50;7.70;;;6.13;;
79005;SDS011;69202;45.498;-73.582;2023-07-08T04:26:16;12.00;;;8.13;;
79005;SDS011;69202;45.498;-73.582;2023-07-08T04:28:44;8.32;;;6.35;;
79005;SDS011;69202;45.498;-73.582;2023-07-08T04:31:10;10.20;;;6.85;;
79005;SDS011;69202;45.498;-73.582;2023-07-08T04:33:36;9.35;;;8.25;;
79005;SDS011;69202;45.498;-73.582;2023-07-08T04:36:02;9.43;;;8.43;;
79005;SDS011;69202;45.498;-73.582;2023-07-08T04:38:28;8.50;;;7.30;;
79005;SDS011;69202;45.498;-73.582;2023-07-08T04:40:54;11.98;;;7.28;;
79005;SDS011;69202;45.498;-73.582;2023-07-08T04:43:22;13.20;;;8.35;;
79005;SDS011;69202;45.498;-73.582;2023-07-08T04:45:51;9.57;;;7.15;;
79005;SDS011;69202;45.498;-73.582;2023-07-08T04:48:19;11.38;;;6.38;;
79005;SDS011;69202;45.498;-73.582;2023-07-08T04:50:51;6.53;;;5.18;;
79005;SDS011;69202;45.498;-73.582;2023-07-08T04:53:18;11.75;;;7.43;;
79005;SDS011;69202;45.498;-73.582;2023-07-08T04:55:46;6.35;;;5.50;;
79005;SDS011;69202;45.498;-73.582;2023-07-08T04:58:17;7.25;;;6.20;;
79005;SDS011;69202;45.498;-73.582;2023-07-08T05:00:43;7.25;;;6.55;;
79005;SDS011;69202;45.498;-73.582;2023-07-08T05:03:09;14.20;;;7.47;;
79005;SDS011;69202;45.498;-73.582;2023-07-08T05:05:35;10.43;;;7.40;;
79005;SDS011;69202;45.498;-73.582;2023-07-08T05:08:01;8.70;;;6.53;;
79005;SDS011;69202;45.498;-73.582;2023-07-08T05:10:27;10.10;;;7.28;;
79005;SDS011;69202;45.498;-73.582;2023-07-08T05:12:53;6.88;;;6.03;;
79005;SDS011;69202;45.498;-73.582;2023-07-08T05:15:19;7.70;;;5.68;;
79005;SDS011;69202;45.498;-73.582;2023-07-08T05:17:45;4.72;;;4.20;;
79005;SDS011;69202;45.498;-73.582;2023-07-08T05:20:12;4.10;;;3.60;;
79005;SDS011;69202;45.498;-73.582;2023-07-08T05:22:39;5.57;;;5.05;;
79005;SDS011;69202;45.498;-73.582;2023-07-08T05:25:07;7.80;;;6.93;;
79005;SDS011;69202;45.498;-73.582;2023-07-08T05:27:34;11.00;;;6.65;;
79005;SDS011;69202;45.498;-73.582;2023-07-08T05:30:00;5.65;;;5.10;;
79005;SDS011;69202;45.498;-73.582;2023-07-08T05:32:26;7.60;;;6.50;;
79005;SDS011;69202;45.498;-73.582;2023-07-08T05:34:53;10.32;;;7.40;;
79005;SDS011;69202;45.498;-73.582;2023-07-08T05:37:19;9.02;;;7.22;;
79005;SDS011;69202;45.498;-73.582;2023-07-08T05:39:49;8.15;;;6.85;;
79005;SDS011;69202;45.498;-73.582;2023-07-08T05:42:14;8.65;;;6.78;;
79005;SDS011;69202;45.498;-73.582;2023-07-08T05:44:40;11.00;;;6.95;;
79005;SDS011;69202;45.498;-73.582;2023-07-08T05:47:06;9.82;;;6.80;;
79005;SDS011;69202;45.498;-73.582;2023-07-08T05:49:32;6.47;;;5.88;;
79005;SDS011;69202;45.498;-73.582;2023-07-08T05:51:58;6.72;;;6.03;;
79005;SDS011;69202;45.498;-73.582;2023-07-08T05:54:24;5.00;;;4.50;;
79005;SDS011;69202;45.498;-73.582;2023-07-08T05:56:50;6.18;;;5.57;;
79005;SDS011;69202;45.498;-73.582;2023-07-08T05:59:16;4.57;;;4.18;;
79005;SDS011;69202;45.498;-73.582;2023-07-08T06:01:42;9.68;;;7.65;;
79005;SDS011;69202;45.498;-73.582;2023-07-08T06:04:07;11.40;;;7.78;;
79005;SDS011;69202;45.498;-73.582;2023-07-08T06:06:33;10.80;;;7.47;;
79005;SDS011;69202;45.498;-73.582;2023-07-08T06:08:59;8.70;;;6.20;;
79005;SDS011;69202;45.498;-73.582;2023-07-08T06:11:25;10.30;;;7.30;;
79005;SDS011;69202;45.498;-73.582;2023-07-08T06:13:51;11.48;;;8.15;;
79005;SDS011;69202;45.498;-73.582;2023-07-08T06:16:17;10.65;;;8.43;;
79005;SDS011;69202;45.498;-73.582;2023-07-08T06:18:46;15.63;;;8.45;;
79005;SDS011;69202;45.498;-73.582;2023-07-08T06:21:12;7.68;;;6.35;;
79005;SDS011;69202;45.498;-73.582;2023-07-08T06:23:38;11.45;;;7.80;;
79005;SDS011;69202;45.498;-73.582;2023-07-08T06:26:04;12.18;;;8.20;;
79005;SDS011;69202;45.498;-73.582;2023-07-08T06:28:29;8.90;;;7.97;;
79005;SDS011;69202;45.498;-73.582;2023-07-08T06:30:55;13.40;;;7.90;;
79005;SDS011;69202;45.498;-73.582;2023-07-08T06:33:21;9.07;;;7.40;;
79005;SDS011;69202;45.498;-73.582;2023-07-08T06:35:47;10.45;;;7.70;;
79005;SDS011;69202;45.498;-73.582;2023-07-08T06:38:13;12.70;;;7.32;;
79005;SDS011;69202;45.498;-73.582;2023-07-08T06:40:39;9.82;;;8.07;;
79005;SDS011;69202;45.498;-73.582;2023-07-08T06:43:05;6.55;;;4.40;;
79005;SDS011;69202;45.498;-73.582;2023-07-08T06:45:31;7.00;;;6.28;;
79005;SDS011;69202;45.498;-73.582;2023-07-08T06:47:57;7.35;;;6.57;;
79005;SDS011;69202;45.498;-73.582;2023-07-08T06:50:23;6.07;;;4.53;;
79005;SDS011;69202;45.498;-73.582;2023-07-08T06:52:49;3.72;;;3.42;;
79005;SDS011;69202;45.498;-73.582;2023-07-08T06:55:15;4.22;;;3.42;;
79005;SDS011;69202;45.498;-73.582;2023-07-08T06:57:41;4.68;;;4.28;;
79005;SDS011;69202;45.498;-73.582;2023-07-08T07:00:07;8.45;;;6.18;;
79005;SDS011;69202;45.498;-73.582;2023-07-08T07:02:33;6.25;;;5.20;;
79005;SDS011;69202;45.498;-73.582;2023-07-08T07:05:00;5.80;;;5.20;;
79005;SDS011;69202;45.498;-73.582;2023-07-08T07:07:26;6.63;;;5.50;;
79005;SDS011;69202;45.498;-73.582;2023-07-08T07:09:53;5.28;;;4.78;;
79005;SDS011;69202;45.498;-73.582;2023-07-08T07:12:19;6.60;;;5.95;;
79005;SDS011;69202;45.498;-73.582;2023-07-08T07:14:46;5.00;;;4.50;;
79005;SDS011;69202;45.498;-73.582;2023-07-08T07:17:12;6.15;;;5.47;;
79005;SDS011;69202;45.498;-73.582;2023-07-08T07:19:37;6.00;;;5.25;;
79005;SDS011;69202;45.498;-73.582;2023-07-08T07:22:03;7.50;;;5.93;;
79005;SDS011;69202;45.498;-73.582;2023-07-08T07:24:30;4.22;;;3.85;;
79005;SDS011;69202;45.498;-73.582;2023-07-08T07:26:55;6.57;;;4.93;;
79005;SDS011;69202;45.498;-73.582;2023-07-08T07:29:22;7.32;;;6.00;;
79005;SDS011;69202;45.498;-73.582;2023-07-08T07:31:49;8.68;;;6.75;;
79005;SDS011;69202;45.498;-73.582;2023-07-08T07:34:16;7.82;;;7.05;;
79005;SDS011;69202;45.498;-73.582;2023-07-08T07:36:43;7.22;;;6.57;;
79005;SDS011;69202;45.498;-73.582;2023-07-08T07:39:08;6.80;;;6.10;;
79005;SDS011;69202;45.498;-73.582;2023-07-08T07:41:34;7.90;;;6.32;;
79005;SDS011;69202;45.498;-73.582;2023-07-08T07:44:00;8.10;;;6.72;;
79005;SDS011;69202;45.498;-73.582;2023-07-08T07:46:26;8.23;;;6.60;;
79005;SDS011;69202;45.498;-73.582;2023-07-08T07:48:52;7.80;;;7.05;;
79005;SDS011;69202;45.498;-73.582;2023-07-08T07:51:19;7.90;;;6.57;;
79005;SDS011;69202;45.498;-73.582;2023-07-08T07:53:44;7.90;;;6.90;;
79005;SDS011;69202;45.498;-73.582;2023-07-08T07:56:10;8.77;;;6.85;;
79005;SDS011;69202;45.498;-73.582;2023-07-08T07:58:36;6.32;;;5.72;;
79005;SDS011;69202;45.498;-73.582;2023-07-08T08:01:02;7.35;;;6.65;;
79005;SDS011;69202;45.498;-73.582;2023-07-08T08:03:28;7.60;;;5.93;;
79005;SDS011;69202;45.498;-73.582;2023-07-08T08:05:54;4.90;;;4.10;;
79005;SDS011;69202;45.498;-73.582;2023-07-08T08:08:20;7.47;;;4.78;;
79005;SDS011;69202;45.498;-73.582;2023-07-08T08:10:47;7.13;;;6.45;;
79005;SDS011;69202;45.498;-73.582;2023-07-08T08:13:14;9.07;;;6.95;;
79005;SDS011;69202;45.498;-73.582;2023-07-08T08:15:39;10.55;;;8.65;;
79005;SDS011;69202;45.498;-73.582;2023-07-08T08:18:05;9.88;;;7.75;;
79005;SDS011;69202;45.498;-73.582;2023-07-08T08:20:31;11.38;;;8.02;;
79005;SDS011;69202;45.498;-73.582;2023-07-08T08:22:57;11.27;;;8.40;;
79005;SDS011;69202;45.498;-73.582;2023-07-08T08:25:23;13.55;;;9.20;;
79005;SDS011;69202;45.498;-73.582;2023-07-08T08:27:50;10.30;;;9.27;;
79005;SDS011;69202;45.498;-73.582;2023-07-08T08:30:17;5.80;;;4.57;;
79005;SDS011;69202;45.498;-73.582;2023-07-08T08:32:43;9.32;;;7.68;;
79005;SDS011;69202;45.498;-73.582;2023-07-08T08:35:09;9.75;;;8.73;;
79005;SDS011;69202;45.498;-73.582;2023-07-08T08:37:35;11.18;;;9.10;;
79005;SDS011;69202;45.498;-73.582;2023-07-08T08:40:01;12.13;;;9.18;;
79005;SDS011;69202;45.498;-73.582;2023-07-08T08:44:56;9.05;;;7.30;;
79005;SDS011;69202;45.498;-73.582;2023-07-08T08:50:23;13.13;;;9.02;;
79005;SDS011;69202;45.498;-73.582;2023-07-08T08:52:52;14.10;;;9.85;;
79005;SDS011;69202;45.498;-73.582;2023-07-08T08:55:21;11.95;;;9.80;;
79005;SDS011;69202;45.498;-73.582;2023-07-08T08:58:01;11.68;;;9.55;;
79005;SDS011;69202;45.498;-73.582;2023-07-08T09:00:41;13.20;;;10.90;;
79005;SDS011;69202;45.498;-73.582;2023-07-08T09:03:24;12.07;;;10.48;;
79005;SDS011;69202;45.498;-73.582;2023-07-08T09:06:21;13.10;;;10.25;;
79005;SDS011;69202;45.498;-73.582;2023-07-08T09:08:51;12.60;;;10.13;;
79005;SDS011;69202;45.498;-73.582;2023-07-08T09:11:34;13.13;;;11.68;;
79005;SDS011;69202;45.498;-73.582;2023-07-08T09:14:01;14.57;;;10.88;;
79005;SDS011;69202;45.498;-73.582;2023-07-08T09:19:13;15.30;;;11.68;;
79005;SDS011;69202;45.498;-73.582;2023-07-08T09:21:52;14.07;;;10.95;;
79005;SDS011;69202;45.498;-73.582;2023-07-08T09:27:05;16.23;;;12.27;;
79005;SDS011;69202;45.498;-73.582;2023-07-08T09:29:32;14.90;;;12.50;;
79005;SDS011;69202;45.498;-73.582;2023-07-08T09:31:59;13.82;;;12.23;;
79005;SDS011;69202;45.498;-73.582;2023-07-08T09:34:40;11.13;;;10.00;;
79005;SDS011;69202;45.498;-73.582;2023-07-08T09:37:22;13.05;;;11.70;;
79005;SDS011;69202;45.498;-73.582;2023-07-08T09:39:53;15.45;;;11.88;;
79005;SDS011;69202;45.498;-73.582;2023-07-08T09:42:21;13.50;;;12.10;;
79005;SDS011;69202;45.498;-73.582;2023-07-08T09:44:54;12.35;;;11.02;;
79005;SDS011;69202;45.498;-73.582;2023-07-08T09:47:23;12.70;;;11.40;;
79005;SDS011;69202;45.498;-73.582;2023-07-08T09:49:57;13.43;;;11.07;;
79005;SDS011;69202;45.498;-73.582;2023-07-08T09:52:23;9.32;;;8.43;;
79005;SDS011;69202;45.498;-73.582;2023-07-08T09:54:49;10.25;;;9.23;;
79005;SDS011;69202;45.498;-73.582;2023-07-08T09:59:57;5.28;;;4.78;;
79005;SDS011;69202;45.498;-73.582;2023-07-08T10:08:11;12.10;;;10.80;;
79005;SDS011;69202;45.498;-73.582;2023-07-08T10:10:42;11.43;;;10.18;;
79005;SDS011;69202;45.498;-73.582;2023-07-08T10:15:37;10.93;;;9.80;;
79005;SDS011;69202;45.498;-73.582;2023-07-08T10:18:10;11.10;;;9.88;;
79005;SDS011;69202;45.498;-73.582;2023-07-08T10:20:49;9.57;;;8.63;;
79005;SDS011;69202;45.498;-73.582;2023-07-08T10:28:59;11.50;;;9.48;;
79005;SDS011;69202;45.498;-73.582;2023-07-08T10:31:56;10.98;;;9.88;;
79005;SDS011;69202;45.498;-73.582;2023-07-08T10:37:28;10.88;;;8.98;;
79005;SDS011;69202;45.498;-73.582;2023-07-08T10:48:09;11.27;;;10.18;;
79005;SDS011;69202;45.498;-73.582;2023-07-08T10:50:51;13.60;;;12.32;;
79005;SDS011;69202;45.498;-73.582;2023-07-08T10:53:46;13.65;;;12.02;;
79005;SDS011;69202;45.498;-73.582;2023-07-08T10:56:32;16.75;;;12.15;;
79005;SDS011;69202;45.498;-73.582;2023-07-08T10:59:23;15.63;;;11.77;;
79005;SDS011;69202;45.498;-73.582;2023-07-08T11:09:53;13.43;;;11.38;;
79005;SDS011;69202;45.498;-73.582;2023-07-08T11:17:40;12.43;;;10.95;;
79005;SDS011;69202;45.498;-73.582;2023-07-08T11:20:24;16.15;;;11.63;;
79005;SDS011;69202;45.498;-73.582;2023-07-08T11:23:12;12.15;;;10.75;;
79005;SDS011;69202;45.498;-73.582;2023-07-08T11:26:21;17.50;;;11.65;;
79005;SDS011;69202;45.498;-73.582;2023-07-08T11:28:53;16.35;;;11.70;;
79005;SDS011;69202;45.498;-73.582;2023-07-08T11:31:22;15.43;;;11.55;;
79005;SDS011;69202;45.498;-73.582;2023-07-08T11:33:50;12.73;;;9.85;;
79005;SDS011;69202;45.498;-73.582;2023-07-08T11:36:18;11.80;;;10.13;;
79005;SDS011;69202;45.498;-73.582;2023-07-08T11:38:53;14.70;;;11.00;;
79005;SDS011;69202;45.498;-73.582;2023-07-08T11:41:22;11.00;;;9.35;;
79005;SDS011;69202;45.498;-73.582;2023-07-08T11:43:58;15.13;;;11.02;;
79005;SDS011;69202;45.498;-73.582;2023-07-08T11:46:28;10.85;;;9.75;;
79005;SDS011;69202;45.498;-73.582;2023-07-08T11:49:02;12.45;;;10.27;;
79005;SDS011;69202;45.498;-73.582;2023-07-08T11:51:31;11.60;;;10.40;;
79005;SDS011;69202;45.498;-73.582;2023-07-08T11:54:00;11.18;;;10.07;;
79005;SDS011;69202;45.498;-73.582;2023-07-08T11:59:21;10.98;;;9.38;;
79005;SDS011;69202;45.498;-73.582;2023-07-08T12:04:51;11.13;;;8.82;;
79005;SDS011;69202;45.498;-73.582;2023-07-08T12:07:21;11.00;;;9.82;;
79005;SDS011;69202;45.498;-73.582;2023-07-08T12:09:58;7.00;;;6.30;;
79005;SDS011;69202;45.498;-73.582;2023-07-08T12:12:30;15.52;;;9.85;;
79005;SDS011;69202;45.498;-73.582;2023-07-08T12:15:05;10.38;;;9.38;;
79005;SDS011;69202;45.498;-73.582;2023-07-08T12:17:55;12.52;;;9.23;;
79005;SDS011;69202;45.498;-73.582;2023-07-08T12:20:31;11.00;;;9.27;;
79005;SDS011;69202;45.498;-73.582;2023-07-08T12:23:00;8.15;;;5.45;;
79005;SDS011;69202;45.498;-73.582;2023-07-08T12:25:30;12.73;;;9.43;;
79005;SDS011;69202;45.498;-73.582;2023-07-08T12:27:59;12.00;;;9.40;;
79005;SDS011;69202;45.498;-73.582;2023-07-08T12:30:30;11.30;;;8.80;;
79005;SDS011;69202;45.498;-73.582;2023-07-08T12:32:58;9.98;;;8.95;;
79005;SDS011;69202;45.498;-73.582;2023-07-08T12:35:26;11.18;;;8.40;;
79005;SDS011;69202;45.498;-73.582;2023-07-08T12:37:57;7.78;;;7.00;;
79005;SDS011;69202;45.498;-73.582;2023-07-08T12:40:26;9.82;;;8.80;;
79005;SDS011;69202;45.498;-73.582;2023-07-08T12:42:54;14.95;;;9.30;;
79005;SDS011;69202;45.498;-73.582;2023-07-08T12:45:22;9.32;;;8.32;;
79005;SDS011;69202;45.498;-73.582;2023-07-08T12:47:50;5.63;;;4.40;;
79005;SDS011;69202;45.498;-73.582;2023-07-08T12:50:16;13.35;;;9.45;;
79005;SDS011;69202;45.498;-73.582;2023-07-08T12:52:43;8.32;;;7.13;;
79005;SDS011;69202;45.498;-73.582;2023-07-08T12:55:11;8.93;;;7.50;;
79005;SDS011;69202;45.498;-73.582;2023-07-08T12:57:39;6.07;;;5.10;;
79005;SDS011;69202;45.498;-73.582;2023-07-08T13:00:24;5.53;;;4.63;;
79005;SDS011;69202;45.498;-73.582;2023-07-08T13:03:03;10.45;;;8.70;;
79005;SDS011;69202;45.498;-73.582;2023-07-08T13:05:33;5.60;;;4.13;;
79005;SDS011;69202;45.498;-73.582;2023-07-08T13:07:59;4.55;;;3.97;;
79005;SDS011;69202;45.498;-73.582;2023-07-08T13:10:26;5.38;;;4.88;;
79005;SDS011;69202;45.498;-73.582;2023-07-08T13:12:56;4.30;;;3.85;;
79005;SDS011;69202;45.498;-73.582;2023-07-08T13:15:32;5.97;;;5.35;;
79005;SDS011;69202;45.498;-73.582;2023-07-08T13:18:01;4.43;;;4.03;;
79005;SDS011;69202;45.498;-73.582;2023-07-08T13:20:27;9.07;;;7.03;;
79005;SDS011;69202;45.498;-73.582;2023-07-08T13:22:55;6.63;;;4.38;;
79005;SDS011;69202;45.498;-73.582;2023-07-08T13:25:26;8.27;;;7.25;;
79005;SDS011;69202;45.498;-73.582;2023-07-08T13:27:55;4.90;;;4.10;;
79005;SDS011;69202;45.498;-73.582;2023-07-08T13:30:23;7.45;;;6.80;;
79005;SDS011;69202;45.498;-73.582;2023-07-08T13:32:54;9.75;;;8.63;;
79005;SDS011;69202;45.498;-73.582;2023-07-08T13:35:26;10.48;;;8.57;;
79005;SDS011;69202;45.498;-73.582;2023-07-08T13:38:03;5.07;;;4.55;;
79005;SDS011;69202;45.498;-73.582;2023-07-08T13:40:29;8.07;;;6.75;;
79005;SDS011;69202;45.498;-73.582;2023-07-08T13:42:57;6.82;;;6.13;;
79005;SDS011;69202;45.498;-73.582;2023-07-08T13:45:24;5.07;;;4.50;;
79005;SDS011;69202;45.498;-73.582;2023-07-08T13:48:00;7.07;;;5.32;;
79005;SDS011;69202;45.498;-73.582;2023-07-08T13:50:30;5.97;;;5.22;;
79005;SDS011;69202;45.498;-73.582;2023-07-08T13:53:18;4.28;;;3.90;;
79005;SDS011;69202;45.498;-73.582;2023-07-08T13:55:47;9.65;;;7.60;;
79005;SDS011;69202;45.498;-73.582;2023-07-08T13:58:17;7.40;;;5.55;;
79005;SDS011;69202;45.498;-73.582;2023-07-08T14:00:43;11.10;;;7.50;;
79005;SDS011;69202;45.498;-73.582;2023-07-08T14:03:10;9.07;;;8.20;;
79005;SDS011;69202;45.498;-73.582;2023-07-08T14:05:38;5.28;;;4.68;;
79005;SDS011;69202;45.498;-73.582;2023-07-08T14:08:12;10.32;;;7.53;;
79005;SDS011;69202;45.498;-73.582;2023-07-08T14:10:40;11.52;;;7.18;;
79005;SDS011;69202;45.498;-73.582;2023-07-08T14:13:06;4.25;;;3.95;;
79005;SDS011;69202;45.498;-73.582;2023-07-08T14:15:32;8.57;;;5.40;;
79005;SDS011;69202;45.498;-73.582;2023-07-08T14:18:01;4.13;;;3.83;;
79005;SDS011;69202;45.498;-73.582;2023-07-08T14:20:28;3.67;;;3.38;;
79005;SDS011;69202;45.498;-73.582;2023-07-08T14:22:55;5.63;;;5.13;;
79005;SDS011;69202;45.498;-73.582;2023-07-08T14:25:21;3.33;;;3.13;;
79005;SDS011;69202;45.498;-73.582;2023-07-08T14:27:49;3.90;;;3.50;;
79005;SDS011;69202;45.498;-73.582;2023-07-08T14:30:16;7.07;;;6.20;;
79005;SDS011;69202;45.498;-73.582;2023-07-08T14:32:42;3.80;;;3.50;;
79005;SDS011;69202;45.498;-73.582;2023-07-08T14:35:14;4.20;;;3.90;;
79005;SDS011;69202;45.498;-73.582;2023-07-08T14:37:42;5.32;;;4.82;;
79005;SDS011;69202;45.498;-73.582;2023-07-08T14:40:20;4.13;;;3.72;;
79005;SDS011;69202;45.498;-73.582;2023-07-08T14:43:03;8.15;;;6.57;;
79005;SDS011;69202;45.498;-73.582;2023-07-08T14:45:50;4.43;;;4.03;;
79005;SDS011;69202;45.498;-73.582;2023-07-08T14:48:19;3.85;;;3.42;;
79005;SDS011;69202;45.498;-73.582;2023-07-08T14:50:45;3.80;;;3.50;;
79005;SDS011;69202;45.498;-73.582;2023-07-08T14:53:15;4.10;;;3.70;;
79005;SDS011;69202;45.498;-73.582;2023-07-08T14:55:43;3.75;;;3.45;;
79005;SDS011;69202;45.498;-73.582;2023-07-08T15:01:11;3.78;;;3.17;;
79005;SDS011;69202;45.498;-73.582;2023-07-08T15:03:44;4.25;;;3.25;;
79005;SDS011;69202;45.498;-73.582;2023-07-08T15:06:10;2.92;;;2.72;;
79005;SDS011;69202;45.498;-73.582;2023-07-08T15:08:36;3.03;;;2.83;;
79005;SDS011;69202;45.498;-73.582;2023-07-08T15:11:03;3.72;;;3.45;;
79005;SDS011;69202;45.498;-73.582;2023-07-08T15:13:32;3.33;;;3.05;;
79005;SDS011;69202;45.498;-73.582;2023-07-08T15:15:59;3.08;;;2.88;;
79005;SDS011;69202;45.498;-73.582;2023-07-08T15:18:25;3.35;;;3.05;;
79005;SDS011;69202;45.498;-73.582;2023-07-08T15:20:51;2.70;;;2.50;;
79005;SDS011;69202;45.498;-73.582;2023-07-08T15:23:17;5.65;;;4.18;;
79005;SDS011;69202;45.498;-73.582;2023-07-08T15:25:44;3.70;;;3.40;;
79005;SDS011;69202;45.498;-73.582;2023-07-08T15:28:16;2.90;;;2.70;;
79005;SDS011;69202;45.498;-73.582;2023-07-08T15:30:43;3.00;;;2.65;;
79005;SDS011;69202;45.498;-73.582;2023-07-08T15:33:10;3.13;;;2.47;;
79005;SDS011;69202;45.498;-73.582;2023-07-08T15:35:38;4.45;;;2.97;;